sensor_id;sensor_type;location;lat;lon;timestamp;P1;durP1;ratioP1;P2;durP2;ratioP2
6463;SDS011;3265;42.694;23.282;2023-02-28T00:02:06;22.80;;;13.47;;
6463;SDS011;3265;42.694;23.282;2023-02-28T00:04:32;23.43;;;13.93;;
6463;SDS011;3265;42.694;23.282;2023-02-28T00:06:59;24.80;;;14.10;;
6463;SDS011;3265;42.694;23.282;2023-02-28T00:09:26;25.07;;;14.47;;
6463;SDS011;3265;42.694;23.282;2023-02-28T00:11:53;24.40;;;14.53;;
6463;SDS011;3265;42.694;23.282;2023-02-28T00:14:20;26.03;;;15.97;;
6463;SDS011;3265;42.694;23.282;2023-02-28T00:16:47;23.17;;;14.53;;
6463;SDS011;3265;42.694;23.282;2023-02-28T00:19:15;23.63;;;14.30;;
6463;SDS011;3265;42.694;23.282;2023-02-28T00:21:42;25.03;;;14.57;;
6463;SDS011;3265;42.694;23.282;2023-02-28T00:24:09;24.30;;;14.43;;
6463;SDS011;3265;42.694;23.282;2023-02-28T00:26:35;26.20;;;15.50;;
6463;SDS011;3265;42.694;23.282;2023-02-28T00:29:02;24.30;;;15.13;;
6463;SDS011;3265;42.694;23.282;2023-02-28T00:31:29;22.10;;;14.37;;
6463;SDS011;3265;42.694;23.282;2023-02-28T00:33:56;26.03;;;14.43;;
6463;SDS011;3265;42.694;23.282;2023-02-28T00:36:24;22.60;;;14.03;;
6463;SDS011;3265;42.694;23.282;2023-02-28T00:38:51;23.17;;;14.43;;
6463;SDS011;3265;42.694;23.282;2023-02-28T00:41:18;24.23;;;14.07;;
6463;SDS011;3265;42.694;23.282;2023-02-28T00:43:45;24.33;;;15.03;;
6463;SDS011;3265;42.694;23.282;2023-02-28T00:46:12;25.27;;;15.83;;
6463;SDS011;3265;42.694;23.282;2023-02-28T00:48:39;26.60;;;15.83;;
6463;SDS011;3265;42.694;23.282;2023-02-28T00:51:06;28.87;;;16.77;;
6463;SDS011;3265;42.694;23.282;2023-02-28T00:53:34;29.23;;;16.63;;
6463;SDS011;3265;42.694;23.282;2023-02-28T00:56:01;29.70;;;16.57;;
6463;SDS011;3265;42.694;23.282;2023-02-28T00:58:28;32.07;;;17.10;;
6463;SDS011;3265;42.694;23.282;2023-02-28T01:00:55;27.00;;;16.57;;
6463;SDS011;3265;42.694;23.282;2023-02-28T01:03:22;29.60;;;16.93;;
6463;SDS011;3265;42.694;23.282;2023-02-28T01:05:49;31.27;;;17.13;;
6463;SDS011;3265;42.694;23.282;2023-02-28T01:08:18;29.33;;;16.97;;
6463;SDS011;3265;42.694;23.282;2023-02-28T01:10:46;33.10;;;17.93;;
6463;SDS011;3265;42.694;23.282;2023-02-28T01:13:13;31.07;;;17.73;;
6463;SDS011;3265;42.694;23.282;2023-02-28T01:15:41;33.83;;;18.07;;
6463;SDS011;3265;42.694;23.282;2023-02-28T01:18:11;30.67;;;17.10;;
6463;SDS011;3265;42.694;23.282;2023-02-28T01:20:38;26.07;;;17.23;;
6463;SDS011;3265;42.694;23.282;2023-02-28T01:23:05;28.33;;;17.07;;
6463;SDS011;3265;42.694;23.282;2023-02-28T01:25:33;32.67;;;16.47;;
6463;SDS011;3265;42.694;23.282;2023-02-28T01:28:02;27.60;;;16.10;;
6463;SDS011;3265;42.694;23.282;2023-02-28T01:30:29;32.87;;;16.87;;
6463;SDS011;3265;42.694;23.282;2023-02-28T01:32:56;30.10;;;16.20;;
6463;SDS011;3265;42.694;23.282;2023-02-28T01:35:26;28.13;;;15.17;;
6463;SDS011;3265;42.694;23.282;2023-02-28T01:37:53;25.60;;;15.20;;
6463;SDS011;3265;42.694;23.282;2023-02-28T01:40:21;27.60;;;15.47;;
6463;SDS011;3265;42.694;23.282;2023-02-28T01:42:48;29.57;;;15.57;;
6463;SDS011;3265;42.694;23.282;2023-02-28T01:45:22;26.93;;;14.67;;
6463;SDS011;3265;42.694;23.282;2023-02-28T01:47:55;25.77;;;15.17;;
6463;SDS011;3265;42.694;23.282;2023-02-28T01:51:02;26.73;;;15.23;;
6463;SDS011;3265;42.694;23.282;2023-02-28T01:53:55;27.47;;;15.37;;
6463;SDS011;3265;42.694;23.282;2023-02-28T01:56:25;30.13;;;15.93;;
6463;SDS011;3265;42.694;23.282;2023-02-28T01:58:55;35.17;;;17.10;;
6463;SDS011;3265;42.694;23.282;2023-02-28T02:01:25;31.20;;;16.37;;
6463;SDS011;3265;42.694;23.282;2023-02-28T02:03:54;29.30;;;16.30;;
6463;SDS011;3265;42.694;23.282;2023-02-28T02:06:24;34.63;;;16.50;;
6463;SDS011;3265;42.694;23.282;2023-02-28T02:08:54;35.77;;;18.33;;
6463;SDS011;3265;42.694;23.282;2023-02-28T02:11:22;34.97;;;18.23;;
6463;SDS011;3265;42.694;23.282;2023-02-28T02:13:54;38.60;;;18.07;;
6463;SDS011;3265;42.694;23.282;2023-02-28T02:16:49;45.87;;;20.70;;
6463;SDS011;3265;42.694;23.282;2023-02-28T02:19:40;41.20;;;19.70;;
6463;SDS011;3265;42.694;23.282;2023-02-28T02:25:34;46.73;;;21.10;;
6463;SDS011;3265;42.694;23.282;2023-02-28T02:28:14;45.00;;;21.77;;
6463;SDS011;3265;42.694;23.282;2023-02-28T02:31:03;47.17;;;21.80;;
6463;SDS011;3265;42.694;23.282;2023-02-28T02:36:45;45.27;;;21.37;;
6463;SDS011;3265;42.694;23.282;2023-02-28T02:39:19;50.97;;;21.00;;
6463;SDS011;3265;42.694;23.282;2023-02-28T02:41:58;47.03;;;21.83;;
6463;SDS011;3265;42.694;23.282;2023-02-28T02:44:28;54.40;;;23.03;;
6463;SDS011;3265;42.694;23.282;2023-02-28T02:47:02;48.13;;;21.50;;
6463;SDS011;3265;42.694;23.282;2023-02-28T02:49:36;49.20;;;22.43;;
6463;SDS011;3265;42.694;23.282;2023-02-28T02:52:05;45.23;;;21.97;;
6463;SDS011;3265;42.694;23.282;2023-02-28T02:54:36;53.77;;;23.13;;
6463;SDS011;3265;42.694;23.282;2023-02-28T02:57:05;48.60;;;22.70;;
6463;SDS011;3265;42.694;23.282;2023-02-28T02:59:35;45.87;;;21.73;;
6463;SDS011;3265;42.694;23.282;2023-02-28T03:02:06;50.53;;;22.83;;
6463;SDS011;3265;42.694;23.282;2023-02-28T03:04:39;45.47;;;21.83;;
6463;SDS011;3265;42.694;23.282;2023-02-28T03:07:09;48.07;;;23.03;;
6463;SDS011;3265;42.694;23.282;2023-02-28T03:09:36;46.37;;;22.53;;
6463;SDS011;3265;42.694;23.282;2023-02-28T03:12:04;47.93;;;22.63;;
6463;SDS011;3265;42.694;23.282;2023-02-28T03:14:40;43.57;;;21.50;;
6463;SDS011;3265;42.694;23.282;2023-02-28T03:17:20;47.23;;;22.00;;
6463;SDS011;3265;42.694;23.282;2023-02-28T03:20:15;44.93;;;20.87;;
6463;SDS011;3265;42.694;23.282;2023-02-28T03:22:56;47.47;;;21.47;;
6463;SDS011;3265;42.694;23.282;2023-02-28T03:25:32;45.20;;;21.03;;
6463;SDS011;3265;42.694;23.282;2023-02-28T03:28:08;47.50;;;21.23;;
6463;SDS011;3265;42.694;23.282;2023-02-28T03:30:41;49.63;;;22.53;;
6463;SDS011;3265;42.694;23.282;2023-02-28T03:33:14;52.57;;;22.37;;
6463;SDS011;3265;42.694;23.282;2023-02-28T03:35:47;46.73;;;20.57;;
6463;SDS011;3265;42.694;23.282;2023-02-28T03:38:20;44.17;;;21.67;;
6463;SDS011;3265;42.694;23.282;2023-02-28T03:40:55;49.33;;;22.83;;
6463;SDS011;3265;42.694;23.282;2023-02-28T03:43:28;49.43;;;24.13;;
6463;SDS011;3265;42.694;23.282;2023-02-28T03:46:01;53.43;;;23.17;;
6463;SDS011;3265;42.694;23.282;2023-02-28T03:48:35;55.37;;;24.63;;
6463;SDS011;3265;42.694;23.282;2023-02-28T03:51:08;42.70;;;22.73;;
6463;SDS011;3265;42.694;23.282;2023-02-28T03:53:40;45.97;;;22.83;;
6463;SDS011;3265;42.694;23.282;2023-02-28T03:56:13;47.67;;;22.53;;
6463;SDS011;3265;42.694;23.282;2023-02-28T03:58:44;50.70;;;23.50;;
6463;SDS011;3265;42.694;23.282;2023-02-28T04:01:16;45.70;;;22.40;;
6463;SDS011;3265;42.694;23.282;2023-02-28T04:03:48;44.60;;;22.67;;
6463;SDS011;3265;42.694;23.282;2023-02-28T04:06:18;43.17;;;20.77;;
6463;SDS011;3265;42.694;23.282;2023-02-28T04:08:46;45.70;;;22.07;;
6463;SDS011;3265;42.694;23.282;2023-02-28T04:11:16;49.67;;;22.30;;
6463;SDS011;3265;42.694;23.282;2023-02-28T04:13:47;46.40;;;21.33;;
6463;SDS011;3265;42.694;23.282;2023-02-28T04:16:14;41.53;;;20.23;;
6463;SDS011;3265;42.694;23.282;2023-02-28T04:18:41;39.80;;;19.33;;
6463;SDS011;3265;42.694;23.282;2023-02-28T04:21:09;40.47;;;20.13;;
6463;SDS011;3265;42.694;23.282;2023-02-28T04:23:38;36.77;;;19.70;;
6463;SDS011;3265;42.694;23.282;2023-02-28T04:26:05;40.30;;;19.97;;
6463;SDS011;3265;42.694;23.282;2023-02-28T04:28:33;36.83;;;18.83;;
6463;SDS011;3265;42.694;23.282;2023-02-28T04:31:03;38.77;;;20.23;;
6463;SDS011;3265;42.694;23.282;2023-02-28T04:33:31;38.30;;;18.43;;
6463;SDS011;3265;42.694;23.282;2023-02-28T04:35:59;39.63;;;19.30;;
6463;SDS011;3265;42.694;23.282;2023-02-28T04:38:27;39.40;;;20.87;;
6463;SDS011;3265;42.694;23.282;2023-02-28T04:40:58;42.83;;;20.80;;
6463;SDS011;3265;42.694;23.282;2023-02-28T04:43:25;40.40;;;19.57;;
6463;SDS011;3265;42.694;23.282;2023-02-28T04:45:52;34.27;;;16.60;;
6463;SDS011;3265;42.694;23.282;2023-02-28T04:48:21;30.77;;;15.90;;
6463;SDS011;3265;42.694;23.282;2023-02-28T04:50:48;30.67;;;16.73;;
6463;SDS011;3265;42.694;23.282;2023-02-28T04:53:15;31.83;;;16.73;;
6463;SDS011;3265;42.694;23.282;2023-02-28T04:55:45;33.70;;;17.67;;
6463;SDS011;3265;42.694;23.282;2023-02-28T04:58:14;33.03;;;17.37;;
6463;SDS011;3265;42.694;23.282;2023-02-28T05:00:41;40.17;;;19.47;;
6463;SDS011;3265;42.694;23.282;2023-02-28T05:03:08;38.97;;;19.63;;
6463;SDS011;3265;42.694;23.282;2023-02-28T05:05:35;39.67;;;19.27;;
6463;SDS011;3265;42.694;23.282;2023-02-28T05:08:02;45.77;;;21.47;;
6463;SDS011;3265;42.694;23.282;2023-02-28T05:10:30;41.97;;;21.03;;
6463;SDS011;3265;42.694;23.282;2023-02-28T05:12:57;46.57;;;22.80;;
6463;SDS011;3265;42.694;23.282;2023-02-28T05:15:25;47.23;;;21.70;;
6463;SDS011;3265;42.694;23.282;2023-02-28T05:17:52;49.87;;;23.47;;
6463;SDS011;3265;42.694;23.282;2023-02-28T05:20:19;53.03;;;24.30;;
6463;SDS011;3265;42.694;23.282;2023-02-28T05:22:46;51.60;;;25.70;;
6463;SDS011;3265;42.694;23.282;2023-02-28T05:25:15;49.17;;;22.90;;
6463;SDS011;3265;42.694;23.282;2023-02-28T05:27:43;56.40;;;26.27;;
6463;SDS011;3265;42.694;23.282;2023-02-28T05:30:10;52.93;;;23.70;;
6463;SDS011;3265;42.694;23.282;2023-02-28T05:32:39;50.13;;;25.07;;
6463;SDS011;3265;42.694;23.282;2023-02-28T05:35:08;49.47;;;24.33;;
6463;SDS011;3265;42.694;23.282;2023-02-28T05:37:36;57.50;;;25.80;;
6463;SDS011;3265;42.694;23.282;2023-02-28T05:40:05;58.17;;;26.20;;
6463;SDS011;3265;42.694;23.282;2023-02-28T05:42:35;56.37;;;27.73;;
6463;SDS011;3265;42.694;23.282;2023-02-28T05:45:02;59.63;;;28.73;;
6463;SDS011;3265;42.694;23.282;2023-02-28T05:47:29;62.50;;;28.37;;
6463;SDS011;3265;42.694;23.282;2023-02-28T05:49:57;69.57;;;29.43;;
6463;SDS011;3265;42.694;23.282;2023-02-28T05:52:25;58.90;;;27.90;;
6463;SDS011;3265;42.694;23.282;2023-02-28T05:54:52;64.33;;;29.07;;
6463;SDS011;3265;42.694;23.282;2023-02-28T05:57:18;59.77;;;27.67;;
6463;SDS011;3265;42.694;23.282;2023-02-28T05:59:45;60.67;;;28.70;;
6463;SDS011;3265;42.694;23.282;2023-02-28T06:02:13;63.63;;;28.67;;
6463;SDS011;3265;42.694;23.282;2023-02-28T06:04:41;65.87;;;29.20;;
6463;SDS011;3265;42.694;23.282;2023-02-28T06:07:10;64.43;;;30.23;;
6463;SDS011;3265;42.694;23.282;2023-02-28T06:09:37;71.93;;;31.20;;
6463;SDS011;3265;42.694;23.282;2023-02-28T06:12:05;75.23;;;32.20;;
6463;SDS011;3265;42.694;23.282;2023-02-28T06:14:35;66.77;;;31.50;;
6463;SDS011;3265;42.694;23.282;2023-02-28T06:17:02;71.23;;;31.53;;
6463;SDS011;3265;42.694;23.282;2023-02-28T06:19:30;72.70;;;31.47;;
6463;SDS011;3265;42.694;23.282;2023-02-28T06:21:57;60.03;;;28.70;;
6463;SDS011;3265;42.694;23.282;2023-02-28T06:24:26;64.20;;;30.13;;
6463;SDS011;3265;42.694;23.282;2023-02-28T06:26:55;61.23;;;27.87;;
6463;SDS011;3265;42.694;23.282;2023-02-28T06:29:24;54.40;;;26.97;;
6463;SDS011;3265;42.694;23.282;2023-02-28T06:31:50;54.73;;;26.77;;
6463;SDS011;3265;42.694;23.282;2023-02-28T06:34:17;62.03;;;26.83;;
6463;SDS011;3265;42.694;23.282;2023-02-28T06:36:44;57.70;;;26.70;;
6463;SDS011;3265;42.694;23.282;2023-02-28T06:39:11;59.43;;;26.40;;
6463;SDS011;3265;42.694;23.282;2023-02-28T06:41:40;56.37;;;27.67;;
6463;SDS011;3265;42.694;23.282;2023-02-28T06:44:11;60.00;;;27.93;;
6463;SDS011;3265;42.694;23.282;2023-02-28T06:46:39;60.97;;;29.50;;
6463;SDS011;3265;42.694;23.282;2023-02-28T06:49:06;57.20;;;28.70;;
6463;SDS011;3265;42.694;23.282;2023-02-28T06:51:35;61.47;;;28.33;;
6463;SDS011;3265;42.694;23.282;2023-02-28T06:54:03;69.50;;;30.17;;
6463;SDS011;3265;42.694;23.282;2023-02-28T06:56:34;59.83;;;28.27;;
6463;SDS011;3265;42.694;23.282;2023-02-28T06:59:02;64.43;;;30.40;;
6463;SDS011;3265;42.694;23.282;2023-02-28T07:01:29;63.90;;;29.47;;
6463;SDS011;3265;42.694;23.282;2023-02-28T07:03:57;65.97;;;29.30;;
6463;SDS011;3265;42.694;23.282;2023-02-28T07:06:25;65.83;;;31.13;;
6463;SDS011;3265;42.694;23.282;2023-02-28T07:08:52;66.80;;;32.77;;
6463;SDS011;3265;42.694;23.282;2023-02-28T07:11:20;62.33;;;29.40;;
6463;SDS011;3265;42.694;23.282;2023-02-28T07:13:47;64.60;;;27.97;;
6463;SDS011;3265;42.694;23.282;2023-02-28T07:16:15;57.83;;;26.43;;
6463;SDS011;3265;42.694;23.282;2023-02-28T07:18:42;54.70;;;26.93;;
6463;SDS011;3265;42.694;23.282;2023-02-28T07:21:10;69.90;;;31.07;;
6463;SDS011;3265;42.694;23.282;2023-02-28T07:23:38;62.73;;;30.63;;
6463;SDS011;3265;42.694;23.282;2023-02-28T07:26:06;67.20;;;32.27;;
6463;SDS011;3265;42.694;23.282;2023-02-28T07:28:38;66.07;;;31.93;;
6463;SDS011;3265;42.694;23.282;2023-02-28T07:31:08;69.27;;;32.53;;
6463;SDS011;3265;42.694;23.282;2023-02-28T07:33:37;63.93;;;31.00;;
6463;SDS011;3265;42.694;23.282;2023-02-28T07:36:05;66.07;;;31.00;;
6463;SDS011;3265;42.694;23.282;2023-02-28T07:38:33;64.90;;;31.27;;
6463;SDS011;3265;42.694;23.282;2023-02-28T07:41:01;69.10;;;31.40;;
6463;SDS011;3265;42.694;23.282;2023-02-28T07:43:29;62.83;;;30.23;;
6463;SDS011;3265;42.694;23.282;2023-02-28T07:46:00;69.10;;;31.87;;
6463;SDS011;3265;42.694;23.282;2023-02-28T07:48:28;68.07;;;32.60;;
6463;SDS011;3265;42.694;23.282;2023-02-28T07:50:56;64.37;;;31.30;;
6463;SDS011;3265;42.694;23.282;2023-02-28T07:53:23;67.93;;;32.33;;
6463;SDS011;3265;42.694;23.282;2023-02-28T07:55:50;72.50;;;33.40;;
6463;SDS011;3265;42.694;23.282;2023-02-28T07:58:18;72.30;;;34.73;;
6463;SDS011;3265;42.694;23.282;2023-02-28T08:00:45;75.57;;;36.03;;
6463;SDS011;3265;42.694;23.282;2023-02-28T08:03:12;84.60;;;36.13;;
6463;SDS011;3265;42.694;23.282;2023-02-28T08:05:39;68.30;;;34.87;;
6463;SDS011;3265;42.694;23.282;2023-02-28T08:08:08;64.80;;;33.70;;
6463;SDS011;3265;42.694;23.282;2023-02-28T08:10:35;69.53;;;34.73;;
6463;SDS011;3265;42.694;23.282;2023-02-28T08:13:03;71.03;;;33.37;;
6463;SDS011;3265;42.694;23.282;2023-02-28T08:15:30;61.00;;;31.93;;
6463;SDS011;3265;42.694;23.282;2023-02-28T08:17:57;71.40;;;33.87;;
6463;SDS011;3265;42.694;23.282;2023-02-28T08:20:23;71.20;;;31.47;;
6463;SDS011;3265;42.694;23.282;2023-02-28T08:22:51;65.50;;;31.40;;
6463;SDS011;3265;42.694;23.282;2023-02-28T08:25:20;59.60;;;30.80;;
6463;SDS011;3265;42.694;23.282;2023-02-28T08:27:47;61.80;;;30.40;;
6463;SDS011;3265;42.694;23.282;2023-02-28T08:30:16;53.73;;;28.53;;
6463;SDS011;3265;42.694;23.282;2023-02-28T08:32:43;65.60;;;30.23;;
6463;SDS011;3265;42.694;23.282;2023-02-28T08:35:10;68.63;;;30.10;;
6463;SDS011;3265;42.694;23.282;2023-02-28T08:37:37;58.20;;;30.20;;
6463;SDS011;3265;42.694;23.282;2023-02-28T08:40:04;59.30;;;31.30;;
6463;SDS011;3265;42.694;23.282;2023-02-28T08:42:34;56.97;;;30.03;;
6463;SDS011;3265;42.694;23.282;2023-02-28T08:45:01;63.73;;;31.47;;
6463;SDS011;3265;42.694;23.282;2023-02-28T08:47:28;71.83;;;33.07;;
6463;SDS011;3265;42.694;23.282;2023-02-28T08:49:54;68.90;;;32.13;;
6463;SDS011;3265;42.694;23.282;2023-02-28T08:52:21;65.03;;;31.10;;
6463;SDS011;3265;42.694;23.282;2023-02-28T08:54:49;75.67;;;37.37;;
6463;SDS011;3265;42.694;23.282;2023-02-28T08:57:15;88.90;;;44.07;;
6463;SDS011;3265;42.694;23.282;2023-02-28T08:59:44;87.63;;;42.87;;
6463;SDS011;3265;42.694;23.282;2023-02-28T09:02:12;92.63;;;45.67;;
6463;SDS011;3265;42.694;23.282;2023-02-28T09:04:39;94.10;;;42.40;;
6463;SDS011;3265;42.694;23.282;2023-02-28T09:07:06;86.40;;;39.37;;
6463;SDS011;3265;42.694;23.282;2023-02-28T09:09:33;79.27;;;38.43;;
6463;SDS011;3265;42.694;23.282;2023-02-28T09:12:00;88.03;;;35.60;;
6463;SDS011;3265;42.694;23.282;2023-02-28T09:14:27;99.70;;;36.03;;
6463;SDS011;3265;42.694;23.282;2023-02-28T09:16:55;82.23;;;35.77;;
6463;SDS011;3265;42.694;23.282;2023-02-28T09:19:22;77.13;;;35.73;;
6463;SDS011;3265;42.694;23.282;2023-02-28T09:21:49;76.00;;;36.50;;
6463;SDS011;3265;42.694;23.282;2023-02-28T09:24:17;79.63;;;36.57;;
6463;SDS011;3265;42.694;23.282;2023-02-28T09:26:45;84.27;;;39.13;;
6463;SDS011;3265;42.694;23.282;2023-02-28T09:29:12;85.83;;;39.17;;
6463;SDS011;3265;42.694;23.282;2023-02-28T09:31:39;84.13;;;36.70;;
6463;SDS011;3265;42.694;23.282;2023-02-28T09:34:07;85.27;;;39.93;;
6463;SDS011;3265;42.694;23.282;2023-02-28T09:36:35;78.83;;;37.23;;
6463;SDS011;3265;42.694;23.282;2023-02-28T09:39:03;78.63;;;34.77;;
6463;SDS011;3265;42.694;23.282;2023-02-28T09:41:32;78.30;;;33.07;;
6463;SDS011;3265;42.694;23.282;2023-02-28T09:44:12;74.60;;;35.20;;
6463;SDS011;3265;42.694;23.282;2023-02-28T09:46:44;80.07;;;37.87;;
6463;SDS011;3265;42.694;23.282;2023-02-28T09:49:16;85.00;;;37.30;;
6463;SDS011;3265;42.694;23.282;2023-02-28T09:51:47;71.53;;;35.87;;
6463;SDS011;3265;42.694;23.282;2023-02-28T09:54:21;82.03;;;35.13;;
6463;SDS011;3265;42.694;23.282;2023-02-28T09:56:51;70.83;;;35.97;;
6463;SDS011;3265;42.694;23.282;2023-02-28T09:59:36;69.57;;;35.80;;
6463;SDS011;3265;42.694;23.282;2023-02-28T10:02:18;79.90;;;37.67;;
6463;SDS011;3265;42.694;23.282;2023-02-28T10:05:02;71.93;;;36.93;;
6463;SDS011;3265;42.694;23.282;2023-02-28T10:07:42;67.90;;;35.37;;
6463;SDS011;3265;42.694;23.282;2023-02-28T10:10:21;63.67;;;32.00;;
6463;SDS011;3265;42.694;23.282;2023-02-28T10:12:51;62.60;;;32.00;;
6463;SDS011;3265;42.694;23.282;2023-02-28T10:15:21;58.40;;;32.10;;
6463;SDS011;3265;42.694;23.282;2023-02-28T10:17:53;54.70;;;29.70;;
6463;SDS011;3265;42.694;23.282;2023-02-28T10:20:25;66.33;;;32.33;;
6463;SDS011;3265;42.694;23.282;2023-02-28T10:22:58;65.43;;;32.47;;
6463;SDS011;3265;42.694;23.282;2023-02-28T10:25:33;68.00;;;33.30;;
6463;SDS011;3265;42.694;23.282;2023-02-28T10:28:05;67.57;;;33.30;;
6463;SDS011;3265;42.694;23.282;2023-02-28T10:30:37;61.50;;;27.97;;
6463;SDS011;3265;42.694;23.282;2023-02-28T10:33:08;60.20;;;28.07;;
6463;SDS011;3265;42.694;23.282;2023-02-28T10:35:46;156.20;;;48.53;;
6463;SDS011;3265;42.694;23.282;2023-02-28T10:38:16;71.37;;;25.70;;
6463;SDS011;3265;42.694;23.282;2023-02-28T10:40:45;50.83;;;18.60;;
6463;SDS011;3265;42.694;23.282;2023-02-28T10:43:19;35.83;;;15.13;;
6463;SDS011;3265;42.694;23.282;2023-02-28T10:45:58;38.93;;;15.73;;
6463;SDS011;3265;42.694;23.282;2023-02-28T10:48:29;37.10;;;15.37;;
6463;SDS011;3265;42.694;23.282;2023-02-28T10:51:00;37.77;;;14.80;;
6463;SDS011;3265;42.694;23.282;2023-02-28T10:53:30;35.83;;;13.63;;
6463;SDS011;3265;42.694;23.282;2023-02-28T10:56:00;27.73;;;12.73;;
6463;SDS011;3265;42.694;23.282;2023-02-28T10:58:29;33.30;;;13.93;;
6463;SDS011;3265;42.694;23.282;2023-02-28T11:00:57;33.63;;;13.53;;
6463;SDS011;3265;42.694;23.282;2023-02-28T11:03:31;30.13;;;12.50;;
6463;SDS011;3265;42.694;23.282;2023-02-28T11:06:05;24.63;;;11.93;;
6463;SDS011;3265;42.694;23.282;2023-02-28T11:08:34;29.07;;;13.03;;
6463;SDS011;3265;42.694;23.282;2023-02-28T11:11:11;25.23;;;12.00;;
6463;SDS011;3265;42.694;23.282;2023-02-28T11:13:38;29.47;;;11.80;;
6463;SDS011;3265;42.694;23.282;2023-02-28T11:16:07;29.87;;;11.83;;
6463;SDS011;3265;42.694;23.282;2023-02-28T11:18:37;29.80;;;12.13;;
6463;SDS011;3265;42.694;23.282;2023-02-28T11:21:09;32.87;;;12.77;;
6463;SDS011;3265;42.694;23.282;2023-02-28T11:23:42;28.43;;;12.80;;
6463;SDS011;3265;42.694;23.282;2023-02-28T11:26:09;25.50;;;11.93;;
6463;SDS011;3265;42.694;23.282;2023-02-28T11:28:37;31.57;;;11.80;;
6463;SDS011;3265;42.694;23.282;2023-02-28T11:31:15;25.27;;;12.07;;
6463;SDS011;3265;42.694;23.282;2023-02-28T11:33:45;27.43;;;11.83;;
6463;SDS011;3265;42.694;23.282;2023-02-28T11:36:18;32.40;;;13.37;;
6463;SDS011;3265;42.694;23.282;2023-02-28T11:38:49;25.80;;;11.83;;
6463;SDS011;3265;42.694;23.282;2023-02-28T11:44:24;26.43;;;11.50;;
6463;SDS011;3265;42.694;23.282;2023-02-28T11:47:06;32.77;;;12.03;;
6463;SDS011;3265;42.694;23.282;2023-02-28T11:49:43;24.83;;;12.40;;
6463;SDS011;3265;42.694;23.282;2023-02-28T11:52:21;27.80;;;12.37;;
6463;SDS011;3265;42.694;23.282;2023-02-28T11:55:07;24.93;;;11.87;;
6463;SDS011;3265;42.694;23.282;2023-02-28T11:57:52;30.10;;;12.73;;
6463;SDS011;3265;42.694;23.282;2023-02-28T12:00:33;32.03;;;12.80;;
6463;SDS011;3265;42.694;23.282;2023-02-28T12:03:18;33.20;;;13.10;;
6463;SDS011;3265;42.694;23.282;2023-02-28T12:05:55;26.27;;;13.37;;
6463;SDS011;3265;42.694;23.282;2023-02-28T12:08:36;30.20;;;14.23;;
6463;SDS011;3265;42.694;23.282;2023-02-28T12:11:16;29.07;;;14.13;;
6463;SDS011;3265;42.694;23.282;2023-02-28T12:13:58;32.13;;;14.00;;
6463;SDS011;3265;42.694;23.282;2023-02-28T12:16:47;33.83;;;13.10;;
6463;SDS011;3265;42.694;23.282;2023-02-28T12:19:25;29.17;;;13.70;;
6463;SDS011;3265;42.694;23.282;2023-02-28T12:22:03;25.87;;;12.80;;
6463;SDS011;3265;42.694;23.282;2023-02-28T12:24:44;29.87;;;12.67;;
6463;SDS011;3265;42.694;23.282;2023-02-28T12:27:21;30.67;;;13.20;;
6463;SDS011;3265;42.694;23.282;2023-02-28T12:29:51;35.07;;;12.97;;
6463;SDS011;3265;42.694;23.282;2023-02-28T12:32:24;24.53;;;13.33;;
6463;SDS011;3265;42.694;23.282;2023-02-28T12:34:57;29.90;;;12.70;;
6463;SDS011;3265;42.694;23.282;2023-02-28T12:37:29;25.87;;;12.47;;
6463;SDS011;3265;42.694;23.282;2023-02-28T12:40:06;34.10;;;14.23;;
6463;SDS011;3265;42.694;23.282;2023-02-28T12:42:39;33.17;;;13.90;;
6463;SDS011;3265;42.694;23.282;2023-02-28T12:45:12;29.63;;;13.60;;
6463;SDS011;3265;42.694;23.282;2023-02-28T12:47:45;30.00;;;12.40;;
6463;SDS011;3265;42.694;23.282;2023-02-28T12:50:17;33.43;;;14.03;;
6463;SDS011;3265;42.694;23.282;2023-02-28T12:52:47;30.53;;;13.03;;
6463;SDS011;3265;42.694;23.282;2023-02-28T12:55:26;34.23;;;14.37;;
6463;SDS011;3265;42.694;23.282;2023-02-28T12:58:00;26.33;;;12.67;;
6463;SDS011;3265;42.694;23.282;2023-02-28T13:00:35;29.70;;;13.87;;
6463;SDS011;3265;42.694;23.282;2023-02-28T13:03:10;31.70;;;12.80;;
6463;SDS011;3265;42.694;23.282;2023-02-28T13:06:00;26.80;;;11.97;;
6463;SDS011;3265;42.694;23.282;2023-02-28T13:09:02;31.47;;;11.10;;
6463;SDS011;3265;42.694;23.282;2023-02-28T13:11:40;25.87;;;10.57;;
6463;SDS011;3265;42.694;23.282;2023-02-28T13:14:16;36.17;;;11.50;;
6463;SDS011;3265;42.694;23.282;2023-02-28T13:16:54;27.30;;;11.43;;
6463;SDS011;3265;42.694;23.282;2023-02-28T13:19:23;25.23;;;11.10;;
6463;SDS011;3265;42.694;23.282;2023-02-28T13:21:54;26.93;;;11.53;;
6463;SDS011;3265;42.694;23.282;2023-02-28T13:24:45;27.73;;;11.33;;
6463;SDS011;3265;42.694;23.282;2023-02-28T13:30:04;25.67;;;11.47;;
6463;SDS011;3265;42.694;23.282;2023-02-28T13:33:21;33.37;;;10.37;;
6463;SDS011;3265;42.694;23.282;2023-02-28T13:38:40;31.40;;;11.30;;
6463;SDS011;3265;42.694;23.282;2023-02-28T13:44:13;32.43;;;12.13;;
6463;SDS011;3265;42.694;23.282;2023-02-28T13:49:46;27.17;;;11.90;;
6463;SDS011;3265;42.694;23.282;2023-02-28T13:52:15;24.17;;;10.93;;
6463;SDS011;3265;42.694;23.282;2023-02-28T13:55:03;27.60;;;11.43;;
6463;SDS011;3265;42.694;23.282;2023-02-28T13:57:47;33.30;;;11.93;;
6463;SDS011;3265;42.694;23.282;2023-02-28T14:00:31;28.30;;;10.80;;
6463;SDS011;3265;42.694;23.282;2023-02-28T14:03:23;25.07;;;11.87;;
6463;SDS011;3265;42.694;23.282;2023-02-28T14:08:52;31.47;;;11.20;;
6463;SDS011;3265;42.694;23.282;2023-02-28T14:11:26;31.00;;;11.50;;
6463;SDS011;3265;42.694;23.282;2023-02-28T14:13:56;26.63;;;11.17;;
6463;SDS011;3265;42.694;23.282;2023-02-28T14:16:25;20.33;;;11.33;;
6463;SDS011;3265;42.694;23.282;2023-02-28T14:18:56;27.77;;;11.10;;
6463;SDS011;3265;42.694;23.282;2023-02-28T14:21:27;33.17;;;11.13;;
6463;SDS011;3265;42.694;23.282;2023-02-28T14:27:27;25.67;;;11.20;;
6463;SDS011;3265;42.694;23.282;2023-02-28T14:33:13;24.30;;;10.80;;
6463;SDS011;3265;42.694;23.282;2023-02-28T14:36:00;23.97;;;10.77;;
6463;SDS011;3265;42.694;23.282;2023-02-28T14:38:33;21.77;;;10.67;;
6463;SDS011;3265;42.694;23.282;2023-02-28T14:41:04;27.73;;;11.20;;
6463;SDS011;3265;42.694;23.282;2023-02-28T14:43:48;35.00;;;11.33;;
6463;SDS011;3265;42.694;23.282;2023-02-28T14:46:19;29.77;;;10.97;;
6463;SDS011;3265;42.694;23.282;2023-02-28T14:48:50;25.47;;;11.10;;
6463;SDS011;3265;42.694;23.282;2023-02-28T14:51:18;25.53;;;10.90;;
6463;SDS011;3265;42.694;23.282;2023-02-28T14:53:51;28.77;;;10.73;;
6463;SDS011;3265;42.694;23.282;2023-02-28T14:56:23;25.93;;;10.87;;
6463;SDS011;3265;42.694;23.282;2023-02-28T14:58:52;24.97;;;10.77;;
6463;SDS011;3265;42.694;23.282;2023-02-28T15:01:21;22.20;;;11.37;;
6463;SDS011;3265;42.694;23.282;2023-02-28T15:03:58;30.23;;;11.70;;
6463;SDS011;3265;42.694;23.282;2023-02-28T15:06:26;22.93;;;11.17;;
6463;SDS011;3265;42.694;23.282;2023-02-28T15:09:07;33.97;;;10.63;;
6463;SDS011;3265;42.694;23.282;2023-02-28T15:11:40;27.90;;;11.17;;
6463;SDS011;3265;42.694;23.282;2023-02-28T15:14:12;29.43;;;11.37;;
6463;SDS011;3265;42.694;23.282;2023-02-28T15:16:44;31.57;;;10.97;;
6463;SDS011;3265;42.694;23.282;2023-02-28T15:19:18;28.33;;;10.80;;
6463;SDS011;3265;42.694;23.282;2023-02-28T15:21:50;29.57;;;10.90;;
6463;SDS011;3265;42.694;23.282;2023-02-28T15:24:21;33.63;;;11.53;;
6463;SDS011;3265;42.694;23.282;2023-02-28T15:26:58;22.90;;;10.50;;
6463;SDS011;3265;42.694;23.282;2023-02-28T15:29:27;28.90;;;11.40;;